sensor_id;sensor_type;location;lat;lon;timestamp;P1;durP1;ratioP1;P2;durP2;ratioP2
78989;SDS011;68390;52.130;21.218;2023-04-25T00:00:56;15.95;;;12.18;;
78989;SDS011;68390;52.130;21.218;2023-04-25T00:03:21;16.20;;;11.40;;
78989;SDS011;68390;52.130;21.218;2023-04-25T00:05:47;15.32;;;10.98;;
78989;SDS011;68390;52.130;21.218;2023-04-25T00:08:13;14.13;;;10.90;;
78989;SDS011;68390;52.130;21.218;2023-04-25T00:10:38;16.88;;;12.30;;
78989;SDS011;68390;52.130;21.218;2023-04-25T00:13:03;15.30;;;11.25;;
78989;SDS011;68390;52.130;21.218;2023-04-25T00:15:29;18.17;;;13.55;;
78989;SDS011;68390;52.130;21.218;2023-04-25T00:17:58;19.50;;;13.65;;
78989;SDS011;68390;52.130;21.218;2023-04-25T00:20:23;17.58;;;13.13;;
78989;SDS011;68390;52.130;21.218;2023-04-25T00:22:49;15.25;;;11.52;;
78989;SDS011;68390;52.130;21.218;2023-04-25T00:25:15;17.85;;;13.70;;
78989;SDS011;68390;52.130;21.218;2023-04-25T00:27:41;18.83;;;14.25;;
78989;SDS011;68390;52.130;21.218;2023-04-25T00:30:07;16.52;;;11.77;;
78989;SDS011;68390;52.130;21.218;2023-04-25T00:32:32;17.27;;;11.93;;
78989;SDS011;68390;52.130;21.218;2023-04-25T00:34:58;18.55;;;13.85;;
78989;SDS011;68390;52.130;21.218;2023-04-25T00:37:24;21.15;;;14.70;;
78989;SDS011;68390;52.130;21.218;2023-04-25T00:39:50;20.63;;;15.02;;
78989;SDS011;68390;52.130;21.218;2023-04-25T00:42:15;16.88;;;13.10;;
78989;SDS011;68390;52.130;21.218;2023-04-25T00:44:41;19.95;;;14.85;;
78989;SDS011;68390;52.130;21.218;2023-04-25T00:47:08;20.45;;;15.35;;
78989;SDS011;68390;52.130;21.218;2023-04-25T00:49:33;17.35;;;12.95;;
78989;SDS011;68390;52.130;21.218;2023-04-25T00:51:59;23.27;;;15.73;;
78989;SDS011;68390;52.130;21.218;2023-04-25T00:54:25;21.38;;;15.48;;
78989;SDS011;68390;52.130;21.218;2023-04-25T00:56:50;23.45;;;17.05;;
78989;SDS011;68390;52.130;21.218;2023-04-25T00:59:16;26.58;;;16.52;;
78989;SDS011;68390;52.130;21.218;2023-04-25T01:01:43;22.17;;;15.25;;
78989;SDS011;68390;52.130;21.218;2023-04-25T01:04:08;21.20;;;15.13;;
78989;SDS011;68390;52.130;21.218;2023-04-25T01:06:34;26.40;;;17.27;;
78989;SDS011;68390;52.130;21.218;2023-04-25T01:09:00;27.42;;;17.92;;
78989;SDS011;68390;52.130;21.218;2023-04-25T01:11:26;20.25;;;13.95;;
78989;SDS011;68390;52.130;21.218;2023-04-25T01:13:52;21.33;;;15.77;;
78989;SDS011;68390;52.130;21.218;2023-04-25T01:16:17;21.40;;;15.60;;
78989;SDS011;68390;52.130;21.218;2023-04-25T01:18:43;23.80;;;16.95;;
78989;SDS011;68390;52.130;21.218;2023-04-25T01:21:11;24.02;;;17.25;;
78989;SDS011;68390;52.130;21.218;2023-04-25T01:23:41;17.73;;;13.05;;
78989;SDS011;68390;52.130;21.218;2023-04-25T01:26:08;20.77;;;15.15;;
78989;SDS011;68390;52.130;21.218;2023-04-25T01:28:35;21.60;;;14.90;;
78989;SDS011;68390;52.130;21.218;2023-04-25T01:31:01;19.20;;;14.10;;
78989;SDS011;68390;52.130;21.218;2023-04-25T01:33:27;21.17;;;14.52;;
78989;SDS011;68390;52.130;21.218;2023-04-25T01:35:52;20.67;;;15.75;;
78989;SDS011;68390;52.130;21.218;2023-04-25T01:38:18;17.77;;;13.00;;
78989;SDS011;68390;52.130;21.218;2023-04-25T01:40:44;18.77;;;12.82;;
78989;SDS011;68390;52.130;21.218;2023-04-25T01:43:11;20.55;;;15.75;;
78989;SDS011;68390;52.130;21.218;2023-04-25T01:45:39;24.25;;;15.88;;
78989;SDS011;68390;52.130;21.218;2023-04-25T01:48:06;20.85;;;15.43;;
78989;SDS011;68390;52.130;21.218;2023-04-25T01:50:32;26.20;;;17.88;;
78989;SDS011;68390;52.130;21.218;2023-04-25T01:52:58;22.20;;;15.80;;
78989;SDS011;68390;52.130;21.218;2023-04-25T01:55:23;19.60;;;14.10;;
78989;SDS011;68390;52.130;21.218;2023-04-25T01:57:49;22.33;;;15.63;;
78989;SDS011;68390;52.130;21.218;2023-04-25T02:00:14;20.15;;;14.73;;
78989;SDS011;68390;52.130;21.218;2023-04-25T02:02:40;23.63;;;16.65;;
78989;SDS011;68390;52.130;21.218;2023-04-25T02:05:05;19.77;;;14.85;;
78989;SDS011;68390;52.130;21.218;2023-04-25T02:07:31;22.75;;;16.00;;
78989;SDS011;68390;52.130;21.218;2023-04-25T02:09:57;20.08;;;14.35;;
78989;SDS011;68390;52.130;21.218;2023-04-25T02:12:23;22.83;;;16.13;;
78989;SDS011;68390;52.130;21.218;2023-04-25T02:14:49;24.27;;;17.60;;
78989;SDS011;68390;52.130;21.218;2023-04-25T02:17:14;24.40;;;16.10;;
78989;SDS011;68390;52.130;21.218;2023-04-25T02:19:41;22.67;;;14.55;;
78989;SDS011;68390;52.130;21.218;2023-04-25T02:22:06;27.35;;;18.17;;
78989;SDS011;68390;52.130;21.218;2023-04-25T02:24:32;26.60;;;17.23;;
78989;SDS011;68390;52.130;21.218;2023-04-25T02:26:58;21.25;;;16.05;;
78989;SDS011;68390;52.130;21.218;2023-04-25T02:29:24;21.65;;;16.42;;
78989;SDS011;68390;52.130;21.218;2023-04-25T02:31:49;20.23;;;14.23;;
78989;SDS011;68390;52.130;21.218;2023-04-25T02:34:15;21.87;;;16.13;;
78989;SDS011;68390;52.130;21.218;2023-04-25T02:36:40;21.08;;;15.13;;
78989;SDS011;68390;52.130;21.218;2023-04-25T02:39:06;17.02;;;13.15;;
78989;SDS011;68390;52.130;21.218;2023-04-25T02:41:32;22.20;;;14.73;;
78989;SDS011;68390;52.130;21.218;2023-04-25T02:43:57;21.55;;;16.05;;
78989;SDS011;68390;52.130;21.218;2023-04-25T02:46:22;23.92;;;16.20;;
78989;SDS011;68390;52.130;21.218;2023-04-25T02:48:48;18.75;;;14.27;;
78989;SDS011;68390;52.130;21.218;2023-04-25T02:51:13;18.90;;;12.88;;
78989;SDS011;68390;52.130;21.218;2023-04-25T02:53:41;21.33;;;15.48;;
78989;SDS011;68390;52.130;21.218;2023-04-25T02:56:06;24.92;;;15.98;;
78989;SDS011;68390;52.130;21.218;2023-04-25T02:58:32;25.00;;;17.83;;
78989;SDS011;68390;52.130;21.218;2023-04-25T03:00:57;23.20;;;15.13;;
78989;SDS011;68390;52.130;21.218;2023-04-25T03:03:23;22.23;;;15.27;;
78989;SDS011;68390;52.130;21.218;2023-04-25T03:05:51;19.35;;;13.80;;
78989;SDS011;68390;52.130;21.218;2023-04-25T03:08:17;22.15;;;15.35;;
78989;SDS011;68390;52.130;21.218;2023-04-25T03:10:43;23.92;;;16.17;;
78989;SDS011;68390;52.130;21.218;2023-04-25T03:13:09;23.38;;;15.60;;
78989;SDS011;68390;52.130;21.218;2023-04-25T03:15:36;24.00;;;16.60;;
78989;SDS011;68390;52.130;21.218;2023-04-25T03:18:21;22.63;;;15.13;;
78989;SDS011;68390;52.130;21.218;2023-04-25T03:20:47;22.88;;;16.95;;
78989;SDS011;68390;52.130;21.218;2023-04-25T03:23:12;16.10;;;12.75;;
78989;SDS011;68390;52.130;21.218;2023-04-25T03:25:38;19.47;;;14.40;;
78989;SDS011;68390;52.130;21.218;2023-04-25T03:28:03;22.48;;;15.90;;
78989;SDS011;68390;52.130;21.218;2023-04-25T03:30:29;19.02;;;12.70;;
78989;SDS011;68390;52.130;21.218;2023-04-25T03:32:54;21.92;;;15.15;;
78989;SDS011;68390;52.130;21.218;2023-04-25T03:35:20;18.85;;;12.70;;
78989;SDS011;68390;52.130;21.218;2023-04-25T03:37:45;19.65;;;15.55;;
78989;SDS011;68390;52.130;21.218;2023-04-25T03:40:11;22.70;;;14.63;;
78989;SDS011;68390;52.130;21.218;2023-04-25T03:42:37;22.45;;;15.98;;
78989;SDS011;68390;52.130;21.218;2023-04-25T03:45:02;52.22;;;20.73;;
78989;SDS011;68390;52.130;21.218;2023-04-25T03:47:28;31.90;;;14.52;;
78989;SDS011;68390;52.130;21.218;2023-04-25T03:49:53;21.25;;;13.43;;
78989;SDS011;68390;52.130;21.218;2023-04-25T03:52:19;28.92;;;17.00;;
78989;SDS011;68390;52.130;21.218;2023-04-25T03:54:45;28.52;;;16.00;;
78989;SDS011;68390;52.130;21.218;2023-04-25T03:57:10;29.90;;;14.15;;
78989;SDS011;68390;52.130;21.218;2023-04-25T03:59:36;20.80;;;13.85;;
78989;SDS011;68390;52.130;21.218;2023-04-25T04:02:01;25.45;;;16.38;;
78989;SDS011;68390;52.130;21.218;2023-04-25T04:04:26;24.38;;;15.75;;
78989;SDS011;68390;52.130;21.218;2023-04-25T04:06:52;24.40;;;17.20;;
78989;SDS011;68390;52.130;21.218;2023-04-25T04:09:18;22.75;;;14.52;;
78989;SDS011;68390;52.130;21.218;2023-04-25T04:11:44;22.67;;;15.82;;
78989;SDS011;68390;52.130;21.218;2023-04-25T04:14:09;22.35;;;13.93;;
78989;SDS011;68390;52.130;21.218;2023-04-25T04:16:35;19.90;;;12.80;;
78989;SDS011;68390;52.130;21.218;2023-04-25T04:19:01;21.92;;;13.65;;
78989;SDS011;68390;52.130;21.218;2023-04-25T04:21:26;22.27;;;13.70;;
78989;SDS011;68390;52.130;21.218;2023-04-25T04:23:52;15.55;;;10.65;;
78989;SDS011;68390;52.130;21.218;2023-04-25T04:26:19;16.40;;;11.85;;
78989;SDS011;68390;52.130;21.218;2023-04-25T04:28:48;17.70;;;11.10;;
78989;SDS011;68390;52.130;21.218;2023-04-25T04:31:15;17.98;;;12.02;;
78989;SDS011;68390;52.130;21.218;2023-04-25T04:33:40;16.98;;;11.35;;
78989;SDS011;68390;52.130;21.218;2023-04-25T04:36:06;17.88;;;10.73;;
78989;SDS011;68390;52.130;21.218;2023-04-25T04:38:32;16.23;;;10.68;;
78989;SDS011;68390;52.130;21.218;2023-04-25T04:40:58;14.23;;;10.02;;
78989;SDS011;68390;52.130;21.218;2023-04-25T04:43:23;15.52;;;10.88;;
78989;SDS011;68390;52.130;21.218;2023-04-25T04:45:49;16.42;;;10.10;;
78989;SDS011;68390;52.130;21.218;2023-04-25T04:48:16;15.93;;;10.63;;
78989;SDS011;68390;52.130;21.218;2023-04-25T04:50:44;13.02;;;9.50;;
78989;SDS011;68390;52.130;21.218;2023-04-25T04:53:10;14.75;;;9.95;;
78989;SDS011;68390;52.130;21.218;2023-04-25T04:55:36;12.30;;;10.25;;
78989;SDS011;68390;52.130;21.218;2023-04-25T04:58:02;13.32;;;9.88;;
78989;SDS011;68390;52.130;21.218;2023-04-25T05:00:27;11.98;;;8.18;;
78989;SDS011;68390;52.130;21.218;2023-04-25T05:02:54;12.18;;;9.98;;
78989;SDS011;68390;52.130;21.218;2023-04-25T05:05:20;14.95;;;10.68;;
78989;SDS011;68390;52.130;21.218;2023-04-25T05:07:45;14.82;;;9.93;;
78989;SDS011;68390;52.130;21.218;2023-04-25T05:10:11;11.60;;;8.88;;
78989;SDS011;68390;52.130;21.218;2023-04-25T05:12:36;13.07;;;9.60;;
78989;SDS011;68390;52.130;21.218;2023-04-25T05:15:02;11.02;;;8.73;;
78989;SDS011;68390;52.130;21.218;2023-04-25T05:17:27;15.15;;;9.98;;
78989;SDS011;68390;52.130;21.218;2023-04-25T05:19:53;11.40;;;9.00;;
78989;SDS011;68390;52.130;21.218;2023-04-25T05:22:18;12.40;;;9.73;;
78989;SDS011;68390;52.130;21.218;2023-04-25T05:24:43;12.27;;;9.52;;
78989;SDS011;68390;52.130;21.218;2023-04-25T05:27:09;11.20;;;8.95;;
78989;SDS011;68390;52.130;21.218;2023-04-25T05:29:34;11.05;;;8.50;;
78989;SDS011;68390;52.130;21.218;2023-04-25T05:32:00;13.30;;;9.07;;
78989;SDS011;68390;52.130;21.218;2023-04-25T05:34:26;12.15;;;8.98;;
78989;SDS011;68390;52.130;21.218;2023-04-25T05:36:51;11.15;;;8.45;;
78989;SDS011;68390;52.130;21.218;2023-04-25T05:39:16;9.52;;;8.07;;
78989;SDS011;68390;52.130;21.218;2023-04-25T05:41:42;10.73;;;8.23;;
78989;SDS011;68390;52.130;21.218;2023-04-25T05:44:08;10.15;;;8.13;;
78989;SDS011;68390;52.130;21.218;2023-04-25T05:46:33;11.68;;;8.43;;
78989;SDS011;68390;52.130;21.218;2023-04-25T05:48:59;11.38;;;8.35;;
78989;SDS011;68390;52.130;21.218;2023-04-25T05:51:24;10.80;;;8.33;;
78989;SDS011;68390;52.130;21.218;2023-04-25T05:53:49;10.55;;;8.02;;
78989;SDS011;68390;52.130;21.218;2023-04-25T05:56:15;11.32;;;8.38;;
78989;SDS011;68390;52.130;21.218;2023-04-25T05:58:40;9.68;;;8.20;;
78989;SDS011;68390;52.130;21.218;2023-04-25T06:01:06;9.98;;;7.70;;
78989;SDS011;68390;52.130;21.218;2023-04-25T06:03:31;13.48;;;8.27;;
78989;SDS011;68390;52.130;21.218;2023-04-25T06:05:57;17.67;;;8.75;;
78989;SDS011;68390;52.130;21.218;2023-04-25T06:08:22;14.20;;;8.55;;
78989;SDS011;68390;52.130;21.218;2023-04-25T06:10:48;11.85;;;8.80;;
78989;SDS011;68390;52.130;21.218;2023-04-25T06:13:13;13.10;;;8.93;;
78989;SDS011;68390;52.130;21.218;2023-04-25T06:15:39;13.50;;;9.05;;
78989;SDS011;68390;52.130;21.218;2023-04-25T06:18:04;13.88;;;8.70;;
78989;SDS011;68390;52.130;21.218;2023-04-25T06:20:30;10.52;;;8.45;;
78989;SDS011;68390;52.130;21.218;2023-04-25T06:22:55;10.48;;;7.97;;
78989;SDS011;68390;52.130;21.218;2023-04-25T06:25:20;12.35;;;8.25;;
78989;SDS011;68390;52.130;21.218;2023-04-25T06:27:46;11.32;;;8.38;;
78989;SDS011;68390;52.130;21.218;2023-04-25T06:30:11;12.85;;;9.07;;
78989;SDS011;68390;52.130;21.218;2023-04-25T06:32:37;14.07;;;9.32;;
78989;SDS011;68390;52.130;21.218;2023-04-25T06:35:03;17.83;;;9.63;;
78989;SDS011;68390;52.130;21.218;2023-04-25T06:37:30;22.67;;;11.02;;
78989;SDS011;68390;52.130;21.218;2023-04-25T06:39:55;11.32;;;8.77;;
78989;SDS011;68390;52.130;21.218;2023-04-25T06:42:21;11.98;;;8.25;;
78989;SDS011;68390;52.130;21.218;2023-04-25T06:44:46;9.80;;;8.50;;
78989;SDS011;68390;52.130;21.218;2023-04-25T06:47:12;12.90;;;8.85;;
78989;SDS011;68390;52.130;21.218;2023-04-25T06:49:37;16.98;;;10.02;;
78989;SDS011;68390;52.130;21.218;2023-04-25T06:52:02;12.48;;;9.43;;
78989;SDS011;68390;52.130;21.218;2023-04-25T06:54:28;11.57;;;8.85;;
78989;SDS011;68390;52.130;21.218;2023-04-25T06:56:55;15.40;;;9.00;;
78989;SDS011;68390;52.130;21.218;2023-04-25T06:59:21;13.60;;;10.07;;
78989;SDS011;68390;52.130;21.218;2023-04-25T07:01:46;11.05;;;8.40;;
78989;SDS011;68390;52.130;21.218;2023-04-25T07:04:12;13.57;;;8.45;;
78989;SDS011;68390;52.130;21.218;2023-04-25T07:06:37;28.92;;;10.95;;
78989;SDS011;68390;52.130;21.218;2023-04-25T07:09:07;12.43;;;8.60;;
78989;SDS011;68390;52.130;21.218;2023-04-25T07:11:36;12.02;;;8.93;;
78989;SDS011;68390;52.130;21.218;2023-04-25T07:14:01;19.42;;;9.07;;
78989;SDS011;68390;52.130;21.218;2023-04-25T07:16:27;18.55;;;8.85;;
78989;SDS011;68390;52.130;21.218;2023-04-25T07:18:52;14.52;;;8.70;;
78989;SDS011;68390;52.130;21.218;2023-04-25T07:21:18;10.65;;;7.60;;
78989;SDS011;68390;52.130;21.218;2023-04-25T07:23:43;10.77;;;7.18;;
78989;SDS011;68390;52.130;21.218;2023-04-25T07:26:09;10.90;;;8.63;;
78989;SDS011;68390;52.130;21.218;2023-04-25T07:28:34;9.20;;;7.22;;
78989;SDS011;68390;52.130;21.218;2023-04-25T07:31:00;9.20;;;7.60;;
78989;SDS011;68390;52.130;21.218;2023-04-25T07:33:25;10.45;;;7.75;;
78989;SDS011;68390;52.130;21.218;2023-04-25T07:35:51;10.40;;;8.50;;
78989;SDS011;68390;52.130;21.218;2023-04-25T07:38:17;9.45;;;7.97;;
78989;SDS011;68390;52.130;21.218;2023-04-25T07:40:42;9.82;;;8.07;;
78989;SDS011;68390;52.130;21.218;2023-04-25T07:43:07;9.23;;;7.53;;
78989;SDS011;68390;52.130;21.218;2023-04-25T07:45:33;10.50;;;8.20;;
78989;SDS011;68390;52.130;21.218;2023-04-25T07:47:58;9.73;;;7.95;;
78989;SDS011;68390;52.130;21.218;2023-04-25T07:50:24;8.70;;;7.13;;
78989;SDS011;68390;52.130;21.218;2023-04-25T07:52:49;10.23;;;8.05;;
78989;SDS011;68390;52.130;21.218;2023-04-25T07:55:15;9.70;;;8.70;;
78989;SDS011;68390;52.130;21.218;2023-04-25T07:57:41;9.85;;;8.55;;
78989;SDS011;68390;52.130;21.218;2023-04-25T08:00:07;11.52;;;7.78;;
78989;SDS011;68390;52.130;21.218;2023-04-25T08:02:34;8.95;;;7.75;;
78989;SDS011;68390;52.130;21.218;2023-04-25T08:05:01;9.40;;;7.95;;
78989;SDS011;68390;52.130;21.218;2023-04-25T08:07:27;9.45;;;7.88;;
78989;SDS011;68390;52.130;21.218;2023-04-25T08:09:53;9.57;;;7.30;;
78989;SDS011;68390;52.130;21.218;2023-04-25T08:12:19;9.73;;;7.80;;
78989;SDS011;68390;52.130;21.218;2023-04-25T08:14:44;9.63;;;7.55;;
78989;SDS011;68390;52.130;21.218;2023-04-25T08:17:10;10.07;;;7.93;;
78989;SDS011;68390;52.130;21.218;2023-04-25T08:19:35;11.52;;;7.97;;
78989;SDS011;68390;52.130;21.218;2023-04-25T08:22:01;12.63;;;8.20;;
78989;SDS011;68390;52.130;21.218;2023-04-25T08:24:26;13.90;;;7.75;;
78989;SDS011;68390;52.130;21.218;2023-04-25T08:26:51;9.53;;;7.17;;
78989;SDS011;68390;52.130;21.218;2023-04-25T08:29:17;8.35;;;6.38;;
78989;SDS011;68390;52.130;21.218;2023-04-25T08:31:42;9.30;;;6.57;;
78989;SDS011;68390;52.130;21.218;2023-04-25T08:34:08;7.97;;;6.85;;
78989;SDS011;68390;52.130;21.218;2023-04-25T08:36:34;8.20;;;6.57;;
78989;SDS011;68390;52.130;21.218;2023-04-25T08:39:00;9.13;;;6.78;;
78989;SDS011;68390;52.130;21.218;2023-04-25T08:41:25;7.88;;;6.30;;
78989;SDS011;68390;52.130;21.218;2023-04-25T08:43:51;8.82;;;6.43;;
78989;SDS011;68390;52.130;21.218;2023-04-25T08:46:18;7.53;;;5.75;;
78989;SDS011;68390;52.130;21.218;2023-04-25T08:48:44;10.40;;;6.32;;
78989;SDS011;68390;52.130;21.218;2023-04-25T08:51:14;7.88;;;5.72;;
78989;SDS011;68390;52.130;21.218;2023-04-25T08:53:46;7.40;;;6.30;;
78989;SDS011;68390;52.130;21.218;2023-04-25T08:56:16;7.75;;;5.82;;
78989;SDS011;68390;52.130;21.218;2023-04-25T08:58:50;7.82;;;5.93;;
78989;SDS011;68390;52.130;21.218;2023-04-25T09:01:16;9.15;;;6.00;;
78989;SDS011;68390;52.130;21.218;2023-04-25T09:03:42;8.23;;;6.28;;
78989;SDS011;68390;52.130;21.218;2023-04-25T09:06:09;9.27;;;6.35;;
78989;SDS011;68390;52.130;21.218;2023-04-25T09:08:36;8.10;;;6.05;;
78989;SDS011;68390;52.130;21.218;2023-04-25T09:11:05;7.85;;;6.22;;
78989;SDS011;68390;52.130;21.218;2023-04-25T09:13:31;7.75;;;6.22;;
78989;SDS011;68390;52.130;21.218;2023-04-25T09:15:57;8.80;;;5.22;;
78989;SDS011;68390;52.130;21.218;2023-04-25T09:18:27;6.57;;;5.18;;
78989;SDS011;68390;52.130;21.218;2023-04-25T09:21:09;8.18;;;5.82;;
78989;SDS011;68390;52.130;21.218;2023-04-25T09:23:46;9.85;;;5.60;;
78989;SDS011;68390;52.130;21.218;2023-04-25T09:26:16;10.45;;;5.57;;
78989;SDS011;68390;52.130;21.218;2023-04-25T09:28:45;8.95;;;6.15;;
78989;SDS011;68390;52.130;21.218;2023-04-25T09:31:20;12.02;;;6.10;;
78989;SDS011;68390;52.130;21.218;2023-04-25T09:33:46;7.32;;;5.82;;
78989;SDS011;68390;52.130;21.218;2023-04-25T09:36:12;7.50;;;6.00;;
78989;SDS011;68390;52.130;21.218;2023-04-25T09:38:45;9.88;;;6.60;;
78989;SDS011;68390;52.130;21.218;2023-04-25T09:41:11;7.68;;;6.50;;
78989;SDS011;68390;52.130;21.218;2023-04-25T09:43:37;10.68;;;8.07;;
78989;SDS011;68390;52.130;21.218;2023-04-25T09:46:08;9.63;;;7.43;;
78989;SDS011;68390;52.130;21.218;2023-04-25T09:48:34;7.50;;;6.60;;
78989;SDS011;68390;52.130;21.218;2023-04-25T09:53:28;9.10;;;6.97;;
78989;SDS011;68390;52.130;21.218;2023-04-25T09:55:53;7.43;;;6.30;;
78989;SDS011;68390;52.130;21.218;2023-04-25T09:58:21;10.05;;;7.18;;
78989;SDS011;68390;52.130;21.218;2023-04-25T10:00:49;7.90;;;6.70;;
78989;SDS011;68390;52.130;21.218;2023-04-25T10:03:16;7.15;;;6.03;;
78989;SDS011;68390;52.130;21.218;2023-04-25T10:05:43;7.40;;;6.13;;
78989;SDS011;68390;52.130;21.218;2023-04-25T10:08:09;7.15;;;5.70;;
78989;SDS011;68390;52.130;21.218;2023-04-25T10:10:36;9.07;;;5.85;;
78989;SDS011;68390;52.130;21.218;2023-04-25T10:13:05;8.75;;;6.97;;
78989;SDS011;68390;52.130;21.218;2023-04-25T10:15:32;7.07;;;6.18;;
78989;SDS011;68390;52.130;21.218;2023-04-25T10:18:00;7.68;;;6.30;;
78989;SDS011;68390;52.130;21.218;2023-04-25T10:20:26;9.00;;;6.75;;
78989;SDS011;68390;52.130;21.218;2023-04-25T10:22:52;10.20;;;7.68;;
78989;SDS011;68390;52.130;21.218;2023-04-25T10:27:47;7.70;;;6.28;;
78989;SDS011;68390;52.130;21.218;2023-04-25T10:30:16;9.00;;;6.55;;
78989;SDS011;68390;52.130;21.218;2023-04-25T10:32:43;8.30;;;6.82;;
78989;SDS011;68390;52.130;21.218;2023-04-25T10:35:10;8.60;;;6.57;;
78989;SDS011;68390;52.130;21.218;2023-04-25T10:40:35;8.85;;;6.88;;
78989;SDS011;68390;52.130;21.218;2023-04-25T10:49:01;10.10;;;7.75;;
78989;SDS011;68390;52.130;21.218;2023-04-25T10:51:28;8.68;;;6.53;;
78989;SDS011;68390;52.130;21.218;2023-04-25T10:56:28;9.20;;;7.28;;
78989;SDS011;68390;52.130;21.218;2023-04-25T10:59:18;9.18;;;7.53;;
78989;SDS011;68390;52.130;21.218;2023-04-25T11:01:53;12.23;;;7.55;;
78989;SDS011;68390;52.130;21.218;2023-04-25T11:07:00;10.18;;;8.60;;
78989;SDS011;68390;52.130;21.218;2023-04-25T11:09:35;9.57;;;7.70;;
78989;SDS011;68390;52.130;21.218;2023-04-25T11:12:03;11.20;;;8.95;;
78989;SDS011;68390;52.130;21.218;2023-04-25T11:14:30;17.13;;;10.20;;
78989;SDS011;68390;52.130;21.218;2023-04-25T11:16:56;15.23;;;10.45;;
78989;SDS011;68390;52.130;21.218;2023-04-25T11:19:26;21.05;;;10.73;;
78989;SDS011;68390;52.130;21.218;2023-04-25T11:21:55;15.38;;;10.77;;
78989;SDS011;68390;52.130;21.218;2023-04-25T11:27:01;11.52;;;10.00;;
78989;SDS011;68390;52.130;21.218;2023-04-25T11:29:30;20.75;;;11.40;;
78989;SDS011;68390;52.130;21.218;2023-04-25T11:31:57;23.13;;;11.73;;
78989;SDS011;68390;52.130;21.218;2023-04-25T11:34:23;14.65;;;9.82;;
78989;SDS011;68390;52.130;21.218;2023-04-25T11:36:51;10.75;;;9.13;;
78989;SDS011;68390;52.130;21.218;2023-04-25T11:39:21;11.77;;;9.07;;
78989;SDS011;68390;52.130;21.218;2023-04-25T11:41:47;11.95;;;9.57;;
78989;SDS011;68390;52.130;21.218;2023-04-25T11:44:15;12.25;;;10.48;;
78989;SDS011;68390;52.130;21.218;2023-04-25T11:46:41;11.75;;;10.50;;
78989;SDS011;68390;52.130;21.218;2023-04-25T11:49:07;12.13;;;9.68;;
78989;SDS011;68390;52.130;21.218;2023-04-25T11:51:43;12.60;;;10.93;;
78989;SDS011;68390;52.130;21.218;2023-04-25T11:54:10;12.82;;;11.45;;
78989;SDS011;68390;52.130;21.218;2023-04-25T11:56:36;14.55;;;11.18;;
78989;SDS011;68390;52.130;21.218;2023-04-25T11:59:03;15.05;;;11.73;;
78989;SDS011;68390;52.130;21.218;2023-04-25T12:04:16;11.48;;;10.27;;
78989;SDS011;68390;52.130;21.218;2023-04-25T12:06:44;12.02;;;10.57;;
78989;SDS011;68390;52.130;21.218;2023-04-25T12:11:47;15.98;;;11.93;;
78989;SDS011;68390;52.130;21.218;2023-04-25T12:14:21;13.70;;;11.63;;
78989;SDS011;68390;52.130;21.218;2023-04-25T12:16:49;13.48;;;11.15;;
78989;SDS011;68390;52.130;21.218;2023-04-25T12:19:16;12.77;;;11.23;;
78989;SDS011;68390;52.130;21.218;2023-04-25T12:21:42;12.27;;;10.98;;
78989;SDS011;68390;52.130;21.218;2023-04-25T12:24:12;13.20;;;10.82;;
78989;SDS011;68390;52.130;21.218;2023-04-25T12:26:49;13.32;;;11.93;;
78989;SDS011;68390;52.130;21.218;2023-04-25T12:29:23;13.07;;;11.25;;
78989;SDS011;68390;52.130;21.218;2023-04-25T12:31:50;13.88;;;11.20;;
78989;SDS011;68390;52.130;21.218;2023-04-25T12:34:19;11.85;;;10.32;;
78989;SDS011;68390;52.130;21.218;2023-04-25T12:36:46;11.32;;;9.98;;
78989;SDS011;68390;52.130;21.218;2023-04-25T12:39:15;10.52;;;9.43;;
78989;SDS011;68390;52.130;21.218;2023-04-25T12:41:42;14.57;;;10.18;;
78989;SDS011;68390;52.130;21.218;2023-04-25T12:44:07;11.07;;;9.07;;
78989;SDS011;68390;52.130;21.218;2023-04-25T12:46:33;10.15;;;8.05;;
78989;SDS011;68390;52.130;21.218;2023-04-25T12:48:58;8.65;;;7.75;;
78989;SDS011;68390;52.130;21.218;2023-04-25T12:51:25;17.23;;;10.00;;
78989;SDS011;68390;52.130;21.218;2023-04-25T12:53:52;9.82;;;8.60;;
78989;SDS011;68390;52.130;21.218;2023-04-25T12:56:18;9.40;;;8.50;;
78989;SDS011;68390;52.130;21.218;2023-04-25T12:58:44;11.68;;;8.70;;
78989;SDS011;68390;52.130;21.218;2023-04-25T13:01:09;9.75;;;8.25;;
78989;SDS011;68390;52.130;21.218;2023-04-25T13:03:37;9.50;;;7.22;;
78989;SDS011;68390;52.130;21.218;2023-04-25T13:06:02;11.60;;;8.45;;
78989;SDS011;68390;52.130;21.218;2023-04-25T13:08:27;9.13;;;7.20;;
78989;SDS011;68390;52.130;21.218;2023-04-25T13:10:53;11.70;;;7.40;;
78989;SDS011;68390;52.130;21.218;2023-04-25T13:13:18;8.50;;;7.60;;
78989;SDS011;68390;52.130;21.218;2023-04-25T13:15:43;8.30;;;6.70;;
78989;SDS011;68390;52.130;21.218;2023-04-25T13:18:09;10.05;;;7.57;;
78989;SDS011;68390;52.130;21.218;2023-04-25T13:20:35;9.32;;;7.38;;
78989;SDS011;68390;52.130;21.218;2023-04-25T13:23:00;8.30;;;6.75;;
78989;SDS011;68390;52.130;21.218;2023-04-25T13:25:26;9.50;;;7.10;;
78989;SDS011;68390;52.130;21.218;2023-04-25T13:27:51;8.82;;;7.05;;
78989;SDS011;68390;52.130;21.218;2023-04-25T13:30:16;6.90;;;6.20;;
78989;SDS011;68390;52.130;21.218;2023-04-25T13:32:42;7.75;;;5.95;;
78989;SDS011;68390;52.130;21.218;2023-04-25T13:35:09;7.32;;;6.10;;
78989;SDS011;68390;52.130;21.218;2023-04-25T13:37:36;6.55;;;5.43;;
78989;SDS011;68390;52.130;21.218;2023-04-25T13:40:02;9.48;;;5.95;;
78989;SDS011;68390;52.130;21.218;2023-04-25T13:42:30;9.77;;;5.97;;
78989;SDS011;68390;52.130;21.218;2023-04-25T13:44:55;7.35;;;5.70;;
78989;SDS011;68390;52.130;21.218;2023-04-25T13:47:21;6.10;;;4.93;;
78989;SDS011;68390;52.130;21.218;2023-04-25T13:49:48;5.70;;;4.18;;
78989;SDS011;68390;52.130;21.218;2023-04-25T13:52:14;5.63;;;3.97;;
78989;SDS011;68390;52.130;21.218;2023-04-25T13:54:40;7.15;;;4.65;;
78989;SDS011;68390;52.130;21.218;2023-04-25T13:57:05;6.10;;;3.88;;
78989;SDS011;68390;52.130;21.218;2023-04-25T13:59:31;5.47;;;4.00;;
78989;SDS011;68390;52.130;21.218;2023-04-25T14:01:57;5.72;;;4.22;;
78989;SDS011;68390;52.130;21.218;2023-04-25T14:04:23;20.85;;;5.55;;
78989;SDS011;68390;52.130;21.218;2023-04-25T14:06:48;7.88;;;4.70;;
78989;SDS011;68390;52.130;21.218;2023-04-25T14:09:14;6.88;;;4.13;;
78989;SDS011;68390;52.130;21.218;2023-04-25T14:11:40;5.22;;;3.70;;
78989;SDS011;68390;52.130;21.218;2023-04-25T14:14:05;4.80;;;3.60;;
78989;SDS011;68390;52.130;21.218;2023-04-25T14:16:31;5.70;;;3.42;;
78989;SDS011;68390;52.130;21.218;2023-04-25T14:18:59;5.35;;;3.42;;
78989;SDS011;68390;52.130;21.218;2023-04-25T14:21:25;5.50;;;3.45;;
78989;SDS011;68390;52.130;21.218;2023-04-25T14:23:51;4.35;;;3.67;;
78989;SDS011;68390;52.130;21.218;2023-04-25T14:26:17;5.10;;;3.60;;
78989;SDS011;68390;52.130;21.218;2023-04-25T14:28:42;5.70;;;3.42;;
78989;SDS011;68390;52.130;21.218;2023-04-25T14:31:08;5.57;;;3.92;;
78989;SDS011;68390;52.130;21.218;2023-04-25T14:33:34;4.95;;;3.85;;
78989;SDS011;68390;52.130;21.218;2023-04-25T14:35:59;5.85;;;4.10;;
78989;SDS011;68390;52.130;21.218;2023-04-25T14:38:25;5.07;;;3.90;;
78989;SDS011;68390;52.130;21.218;2023-04-25T14:40:51;4.80;;;3.92;;
78989;SDS011;68390;52.130;21.218;2023-04-25T14:43:18;5.65;;;4.32;;